Milwaukee, Wisconsin
Traffic Map
Current Weather Conditions
Milwaukee, Wisconsin
Overcast Light Rain
Overcast
52°
Feels Like: 52°
Wind Chill: 52° Ceiling: 10000
Heat Index: 52° Visibility: 10mi
Dew Point: 50° Wind: 5mph
Humidity: 93% Direction: 300° (WNW)
Pressure: 30in Gusts: 0mph
Raw Report DataKMKE 230652Z 30004KT 10SM -RA FEW008 OVC100 11/10 A3000 RMK AO2 SLP159 P0001 T01110100
Traffic Incident Summary
Active as of:
Severity:
Category:
InformationThere was an issue retrieving the traffic information for this location. Please try a different location or try again shortly.
Advertisements